Terminal Aerodrome Forecast
Issued by NWS

Home | Current Version | Previous Version | Graphics & Text | Print | Product List | Glossary On
Versions: 1 2 3 4 5 6 7 8 9 10 11 12 13 14 15 16 17 18 19 20 21 22 23 24 25 26 27 28 29 30 31 32 33 34 35 36 37 38 39 40 41 42 43
000
FTUS45 KGGW 221100
TAFOLF
TAF
KOLF 221133Z 2212/2312 30015G28KT 3SM -SN SCT010 OVC020
     FM222200 32015KT P6SM VCSH OVC035
     FM230000 32011KT P6SM OVC029=

USA.gov is the U.S. government's official web portal to all federal, state and local government web resources and services.